sensor_id;sensor_type;location;lat;lon;timestamp;P1;durP1;ratioP1;P2;durP2;ratioP2
26965;SDS011;14522;52.068;4.414;2023-03-01T00:03:28;6.68;;;3.92;;
26965;SDS011;14522;52.068;4.414;2023-03-01T00:05:55;7.28;;;4.07;;
26965;SDS011;14522;52.068;4.414;2023-03-01T00:08:21;4.90;;;3.10;;
26965;SDS011;14522;52.068;4.414;2023-03-01T00:10:48;6.82;;;3.83;;
26965;SDS011;14522;52.068;4.414;2023-03-01T00:13:14;5.55;;;4.13;;
26965;SDS011;14522;52.068;4.414;2023-03-01T00:15:41;6.47;;;4.38;;
26965;SDS011;14522;52.068;4.414;2023-03-01T00:18:07;5.25;;;4.28;;
26965;SDS011;14522;52.068;4.414;2023-03-01T00:20:34;6.60;;;3.70;;
26965;SDS011;14522;52.068;4.414;2023-03-01T00:23:01;5.57;;;3.58;;
26965;SDS011;14522;52.068;4.414;2023-03-01T00:25:27;7.25;;;3.95;;
26965;SDS011;14522;52.068;4.414;2023-03-01T00:27:53;4.63;;;3.80;;
26965;SDS011;14522;52.068;4.414;2023-03-01T00:30:20;5.57;;;4.15;;
26965;SDS011;14522;52.068;4.414;2023-03-01T00:32:46;7.68;;;3.58;;
26965;SDS011;14522;52.068;4.414;2023-03-01T00:35:12;7.18;;;4.60;;
26965;SDS011;14522;52.068;4.414;2023-03-01T00:37:39;4.50;;;2.85;;
26965;SDS011;14522;52.068;4.414;2023-03-01T00:40:07;7.28;;;5.25;;
26965;SDS011;14522;52.068;4.414;2023-03-01T00:42:33;9.65;;;5.50;;
26965;SDS011;14522;52.068;4.414;2023-03-01T00:44:59;8.55;;;5.22;;
26965;SDS011;14522;52.068;4.414;2023-03-01T00:47:28;8.38;;;4.15;;
26965;SDS011;14522;52.068;4.414;2023-03-01T00:49:54;6.53;;;4.03;;
26965;SDS011;14522;52.068;4.414;2023-03-01T00:52:20;5.82;;;4.43;;
26965;SDS011;14522;52.068;4.414;2023-03-01T00:54:47;5.47;;;2.97;;
26965;SDS011;14522;52.068;4.414;2023-03-01T00:57:13;6.30;;;4.50;;
26965;SDS011;14522;52.068;4.414;2023-03-01T00:59:40;5.78;;;4.07;;
26965;SDS011;14522;52.068;4.414;2023-03-01T01:02:06;7.93;;;4.55;;
26965;SDS011;14522;52.068;4.414;2023-03-01T01:04:32;9.13;;;4.25;;
26965;SDS011;14522;52.068;4.414;2023-03-01T01:06:59;6.25;;;4.68;;
26965;SDS011;14522;52.068;4.414;2023-03-01T01:09:25;6.57;;;4.40;;
26965;SDS011;14522;52.068;4.414;2023-03-01T01:11:52;5.55;;;3.70;;
26965;SDS011;14522;52.068;4.414;2023-03-01T01:14:18;7.68;;;4.82;;
26965;SDS011;14522;52.068;4.414;2023-03-01T01:16:45;7.22;;;5.03;;
26965;SDS011;14522;52.068;4.414;2023-03-01T01:19:12;9.48;;;6.10;;
26965;SDS011;14522;52.068;4.414;2023-03-01T01:21:39;2.55;;;2.08;;
26965;SDS011;14522;52.068;4.414;2023-03-01T01:24:09;3.88;;;2.47;;
26965;SDS011;14522;52.068;4.414;2023-03-01T01:26:35;4.57;;;3.45;;
26965;SDS011;14522;52.068;4.414;2023-03-01T01:29:02;7.82;;;4.95;;
26965;SDS011;14522;52.068;4.414;2023-03-01T01:31:30;8.77;;;4.90;;
26965;SDS011;14522;52.068;4.414;2023-03-01T01:33:58;3.15;;;2.33;;
26965;SDS011;14522;52.068;4.414;2023-03-01T01:36:24;4.22;;;2.90;;
26965;SDS011;14522;52.068;4.414;2023-03-01T01:38:51;7.05;;;3.80;;
26965;SDS011;14522;52.068;4.414;2023-03-01T01:41:18;7.43;;;5.25;;
26965;SDS011;14522;52.068;4.414;2023-03-01T01:43:45;10.27;;;5.47;;
26965;SDS011;14522;52.068;4.414;2023-03-01T01:46:17;5.63;;;3.50;;
26965;SDS011;14522;52.068;4.414;2023-03-01T01:48:59;5.32;;;2.90;;
26965;SDS011;14522;52.068;4.414;2023-03-01T01:51:37;6.18;;;4.78;;
26965;SDS011;14522;52.068;4.414;2023-03-01T01:54:08;8.75;;;5.15;;
26965;SDS011;14522;52.068;4.414;2023-03-01T01:56:36;5.88;;;3.88;;
26965;SDS011;14522;52.068;4.414;2023-03-01T01:59:04;5.03;;;3.25;;
26965;SDS011;14522;52.068;4.414;2023-03-01T02:01:31;6.25;;;3.33;;
26965;SDS011;14522;52.068;4.414;2023-03-01T02:03:57;4.20;;;3.63;;
26965;SDS011;14522;52.068;4.414;2023-03-01T02:06:29;5.22;;;3.10;;
26965;SDS011;14522;52.068;4.414;2023-03-01T02:08:59;4.32;;;3.03;;
26965;SDS011;14522;52.068;4.414;2023-03-01T02:11:26;6.90;;;5.22;;
26965;SDS011;14522;52.068;4.414;2023-03-01T02:13:53;7.80;;;5.38;;
26965;SDS011;14522;52.068;4.414;2023-03-01T02:16:20;10.27;;;6.45;;
26965;SDS011;14522;52.068;4.414;2023-03-01T02:18:47;7.18;;;5.22;;
26965;SDS011;14522;52.068;4.414;2023-03-01T02:23:49;8.23;;;5.38;;
26965;SDS011;14522;52.068;4.414;2023-03-01T02:28:54;7.65;;;5.82;;
26965;SDS011;14522;52.068;4.414;2023-03-01T02:31:21;9.98;;;5.93;;
26965;SDS011;14522;52.068;4.414;2023-03-01T02:34:07;7.70;;;6.40;;
26965;SDS011;14522;52.068;4.414;2023-03-01T02:36:35;10.63;;;7.65;;
26965;SDS011;14522;52.068;4.414;2023-03-01T02:39:03;11.60;;;7.28;;
26965;SDS011;14522;52.068;4.414;2023-03-01T02:41:30;10.85;;;7.57;;
26965;SDS011;14522;52.068;4.414;2023-03-01T02:43:58;6.82;;;4.32;;
26965;SDS011;14522;52.068;4.414;2023-03-01T02:46:25;9.05;;;6.57;;
26965;SDS011;14522;52.068;4.414;2023-03-01T02:48:55;8.57;;;5.85;;
26965;SDS011;14522;52.068;4.414;2023-03-01T02:56:21;10.20;;;7.00;;
26965;SDS011;14522;52.068;4.414;2023-03-01T02:58:47;8.55;;;5.80;;
26965;SDS011;14522;52.068;4.414;2023-03-01T03:01:18;8.57;;;6.72;;
26965;SDS011;14522;52.068;4.414;2023-03-01T03:03:44;7.40;;;5.28;;
26965;SDS011;14522;52.068;4.414;2023-03-01T03:06:11;10.13;;;6.15;;
26965;SDS011;14522;52.068;4.414;2023-03-01T03:08:37;8.85;;;6.70;;
26965;SDS011;14522;52.068;4.414;2023-03-01T03:11:04;9.88;;;6.95;;
26965;SDS011;14522;52.068;4.414;2023-03-01T03:13:30;9.95;;;7.20;;
26965;SDS011;14522;52.068;4.414;2023-03-01T03:15:57;10.45;;;7.38;;
26965;SDS011;14522;52.068;4.414;2023-03-01T03:18:24;9.82;;;7.78;;
26965;SDS011;14522;52.068;4.414;2023-03-01T03:20:52;9.90;;;6.68;;
26965;SDS011;14522;52.068;4.414;2023-03-01T03:23:20;9.65;;;7.35;;
26965;SDS011;14522;52.068;4.414;2023-03-01T03:25:47;9.82;;;6.80;;
26965;SDS011;14522;52.068;4.414;2023-03-01T03:28:14;9.65;;;7.75;;
26965;SDS011;14522;52.068;4.414;2023-03-01T03:30:42;11.45;;;7.50;;
26965;SDS011;14522;52.068;4.414;2023-03-01T03:33:09;11.10;;;8.02;;
26965;SDS011;14522;52.068;4.414;2023-03-01T03:35:40;9.52;;;7.38;;
26965;SDS011;14522;52.068;4.414;2023-03-01T03:38:08;11.98;;;9.18;;
26965;SDS011;14522;52.068;4.414;2023-03-01T03:40:42;12.75;;;8.77;;
26965;SDS011;14522;52.068;4.414;2023-03-01T03:43:10;8.27;;;6.05;;
26965;SDS011;14522;52.068;4.414;2023-03-01T03:45:38;8.48;;;5.93;;
26965;SDS011;14522;52.068;4.414;2023-03-01T03:48:05;9.75;;;7.15;;
26965;SDS011;14522;52.068;4.414;2023-03-01T03:50:32;10.13;;;7.28;;
26965;SDS011;14522;52.068;4.414;2023-03-01T03:53:03;8.80;;;6.20;;
26965;SDS011;14522;52.068;4.414;2023-03-01T03:55:29;8.80;;;5.80;;
26965;SDS011;14522;52.068;4.414;2023-03-01T03:57:57;10.90;;;7.03;;
26965;SDS011;14522;52.068;4.414;2023-03-01T04:00:24;9.48;;;7.13;;
26965;SDS011;14522;52.068;4.414;2023-03-01T04:02:50;12.07;;;7.68;;
26965;SDS011;14522;52.068;4.414;2023-03-01T04:05:18;10.82;;;7.07;;
26965;SDS011;14522;52.068;4.414;2023-03-01T04:07:44;12.43;;;8.18;;
26965;SDS011;14522;52.068;4.414;2023-03-01T04:10:12;11.88;;;8.52;;
26965;SDS011;14522;52.068;4.414;2023-03-01T04:12:39;9.45;;;7.20;;
26965;SDS011;14522;52.068;4.414;2023-03-01T04:15:06;8.75;;;6.22;;
26965;SDS011;14522;52.068;4.414;2023-03-01T04:17:43;7.90;;;5.60;;
26965;SDS011;14522;52.068;4.414;2023-03-01T04:20:15;12.40;;;7.50;;
26965;SDS011;14522;52.068;4.414;2023-03-01T04:22:51;10.52;;;6.78;;
26965;SDS011;14522;52.068;4.414;2023-03-01T04:25:18;17.58;;;4.50;;
26965;SDS011;14522;52.068;4.414;2023-03-01T04:27:45;7.68;;;5.72;;
26965;SDS011;14522;52.068;4.414;2023-03-01T04:30:11;8.10;;;5.32;;
26965;SDS011;14522;52.068;4.414;2023-03-01T04:32:37;12.77;;;5.68;;
26965;SDS011;14522;52.068;4.414;2023-03-01T04:35:04;11.52;;;6.47;;
26965;SDS011;14522;52.068;4.414;2023-03-01T04:37:31;7.35;;;5.40;;
26965;SDS011;14522;52.068;4.414;2023-03-01T04:39:57;7.40;;;5.75;;
26965;SDS011;14522;52.068;4.414;2023-03-01T04:42:23;7.85;;;5.78;;
26965;SDS011;14522;52.068;4.414;2023-03-01T04:44:50;9.13;;;5.63;;
26965;SDS011;14522;52.068;4.414;2023-03-01T04:47:17;6.13;;;4.72;;
26965;SDS011;14522;52.068;4.414;2023-03-01T04:49:43;9.77;;;5.00;;
26965;SDS011;14522;52.068;4.414;2023-03-01T04:52:10;6.53;;;5.10;;
26965;SDS011;14522;52.068;4.414;2023-03-01T04:54:36;10.73;;;4.72;;
26965;SDS011;14522;52.068;4.414;2023-03-01T04:57:03;5.53;;;4.57;;
26965;SDS011;14522;52.068;4.414;2023-03-01T04:59:29;25.75;;;4.82;;
26965;SDS011;14522;52.068;4.414;2023-03-01T05:01:56;11.10;;;4.15;;
26965;SDS011;14522;52.068;4.414;2023-03-01T05:04:23;14.63;;;4.50;;
26965;SDS011;14522;52.068;4.414;2023-03-01T05:06:50;10.18;;;5.20;;
26965;SDS011;14522;52.068;4.414;2023-03-01T05:09:16;6.35;;;4.72;;
26965;SDS011;14522;52.068;4.414;2023-03-01T05:11:43;9.70;;;5.45;;
26965;SDS011;14522;52.068;4.414;2023-03-01T05:14:09;8.38;;;4.45;;
26965;SDS011;14522;52.068;4.414;2023-03-01T05:16:36;7.28;;;4.28;;
26965;SDS011;14522;52.068;4.414;2023-03-01T05:19:03;19.63;;;5.25;;
26965;SDS011;14522;52.068;4.414;2023-03-01T05:21:38;8.10;;;5.15;;
26965;SDS011;14522;52.068;4.414;2023-03-01T05:24:28;9.32;;;5.43;;
26965;SDS011;14522;52.068;4.414;2023-03-01T05:26:54;6.97;;;5.28;;
26965;SDS011;14522;52.068;4.414;2023-03-01T05:29:21;6.65;;;5.22;;
26965;SDS011;14522;52.068;4.414;2023-03-01T05:31:54;11.55;;;6.18;;
26965;SDS011;14522;52.068;4.414;2023-03-01T05:34:32;6.57;;;4.97;;
26965;SDS011;14522;52.068;4.414;2023-03-01T05:36:58;8.90;;;5.35;;
26965;SDS011;14522;52.068;4.414;2023-03-01T05:39:26;10.10;;;5.03;;
26965;SDS011;14522;52.068;4.414;2023-03-01T05:41:53;9.02;;;5.07;;
26965;SDS011;14522;52.068;4.414;2023-03-01T05:44:19;8.60;;;4.97;;
26965;SDS011;14522;52.068;4.414;2023-03-01T05:46:46;7.40;;;4.20;;
26965;SDS011;14522;52.068;4.414;2023-03-01T05:49:12;6.43;;;4.40;;
26965;SDS011;14522;52.068;4.414;2023-03-01T05:51:42;5.93;;;4.43;;
26965;SDS011;14522;52.068;4.414;2023-03-01T05:54:09;7.18;;;4.40;;
26965;SDS011;14522;52.068;4.414;2023-03-01T05:56:36;6.03;;;5.40;;
26965;SDS011;14522;52.068;4.414;2023-03-01T05:59:03;6.55;;;4.60;;
26965;SDS011;14522;52.068;4.414;2023-03-01T06:01:34;5.15;;;4.45;;
26965;SDS011;14522;52.068;4.414;2023-03-01T06:04:01;5.35;;;4.40;;
26965;SDS011;14522;52.068;4.414;2023-03-01T06:06:27;4.70;;;4.30;;
26965;SDS011;14522;52.068;4.414;2023-03-01T06:08:54;5.47;;;4.00;;
26965;SDS011;14522;52.068;4.414;2023-03-01T06:11:21;4.70;;;4.20;;
26965;SDS011;14522;52.068;4.414;2023-03-01T06:13:47;4.97;;;4.30;;
26965;SDS011;14522;52.068;4.414;2023-03-01T06:16:14;6.60;;;5.30;;
26965;SDS011;14522;52.068;4.414;2023-03-01T06:18:40;5.63;;;4.43;;
26965;SDS011;14522;52.068;4.414;2023-03-01T06:21:07;4.45;;;4.05;;
26965;SDS011;14522;52.068;4.414;2023-03-01T06:23:34;4.43;;;3.83;;
26965;SDS011;14522;52.068;4.414;2023-03-01T06:26:04;4.35;;;3.67;;
26965;SDS011;14522;52.068;4.414;2023-03-01T06:28:31;4.65;;;4.20;;
26965;SDS011;14522;52.068;4.414;2023-03-01T06:30:57;5.07;;;4.05;;
26965;SDS011;14522;52.068;4.414;2023-03-01T06:33:24;4.97;;;4.32;;
26965;SDS011;14522;52.068;4.414;2023-03-01T06:35:51;4.03;;;3.60;;
26965;SDS011;14522;52.068;4.414;2023-03-01T06:38:17;3.95;;;3.55;;
26965;SDS011;14522;52.068;4.414;2023-03-01T06:40:45;4.15;;;3.38;;
26965;SDS011;14522;52.068;4.414;2023-03-01T06:43:17;4.45;;;3.97;;
26965;SDS011;14522;52.068;4.414;2023-03-01T06:45:43;5.45;;;4.43;;
26965;SDS011;14522;52.068;4.414;2023-03-01T06:48:09;4.75;;;4.30;;
26965;SDS011;14522;52.068;4.414;2023-03-01T06:50:36;6.00;;;5.13;;
26965;SDS011;14522;52.068;4.414;2023-03-01T06:53:03;5.20;;;4.68;;
26965;SDS011;14522;52.068;4.414;2023-03-01T06:55:30;3.72;;;3.25;;
26965;SDS011;14522;52.068;4.414;2023-03-01T06:57:57;5.00;;;4.22;;
26965;SDS011;14522;52.068;4.414;2023-03-01T07:00:24;5.60;;;4.90;;
26965;SDS011;14522;52.068;4.414;2023-03-01T07:02:50;4.15;;;3.75;;
26965;SDS011;14522;52.068;4.414;2023-03-01T07:05:17;6.43;;;4.93;;
26965;SDS011;14522;52.068;4.414;2023-03-01T07:07:43;5.28;;;4.38;;
26965;SDS011;14522;52.068;4.414;2023-03-01T07:10:10;5.15;;;3.92;;
26965;SDS011;14522;52.068;4.414;2023-03-01T07:12:36;5.25;;;3.85;;
26965;SDS011;14522;52.068;4.414;2023-03-01T07:15:03;5.78;;;4.35;;
26965;SDS011;14522;52.068;4.414;2023-03-01T07:17:30;6.18;;;4.25;;
26965;SDS011;14522;52.068;4.414;2023-03-01T07:19:56;6.28;;;3.35;;
26965;SDS011;14522;52.068;4.414;2023-03-01T07:22:22;5.00;;;3.65;;
26965;SDS011;14522;52.068;4.414;2023-03-01T07:24:49;3.92;;;2.65;;
26965;SDS011;14522;52.068;4.414;2023-03-01T07:27:15;4.38;;;3.70;;
26965;SDS011;14522;52.068;4.414;2023-03-01T07:29:41;5.78;;;4.13;;
26965;SDS011;14522;52.068;4.414;2023-03-01T07:32:08;5.10;;;4.00;;
26965;SDS011;14522;52.068;4.414;2023-03-01T07:34:35;4.03;;;3.60;;
26965;SDS011;14522;52.068;4.414;2023-03-01T07:37:02;7.00;;;4.25;;
26965;SDS011;14522;52.068;4.414;2023-03-01T07:39:28;6.07;;;4.88;;
26965;SDS011;14522;52.068;4.414;2023-03-01T07:41:54;6.22;;;5.05;;
26965;SDS011;14522;52.068;4.414;2023-03-01T07:44:21;10.02;;;6.43;;
26965;SDS011;14522;52.068;4.414;2023-03-01T07:46:47;6.90;;;5.50;;
26965;SDS011;14522;52.068;4.414;2023-03-01T07:49:13;7.97;;;5.65;;
26965;SDS011;14522;52.068;4.414;2023-03-01T07:51:40;4.63;;;3.58;;
26965;SDS011;14522;52.068;4.414;2023-03-01T07:54:06;6.40;;;4.47;;
26965;SDS011;14522;52.068;4.414;2023-03-01T07:56:33;6.80;;;5.05;;
26965;SDS011;14522;52.068;4.414;2023-03-01T07:58:59;7.78;;;5.82;;
26965;SDS011;14522;52.068;4.414;2023-03-01T08:01:25;8.18;;;5.47;;
26965;SDS011;14522;52.068;4.414;2023-03-01T08:03:52;8.48;;;5.95;;
26965;SDS011;14522;52.068;4.414;2023-03-01T08:06:18;9.35;;;7.43;;
26965;SDS011;14522;52.068;4.414;2023-03-01T08:08:45;7.72;;;5.78;;
26965;SDS011;14522;52.068;4.414;2023-03-01T08:11:12;10.68;;;8.38;;
26965;SDS011;14522;52.068;4.414;2023-03-01T08:13:39;5.88;;;4.68;;
26965;SDS011;14522;52.068;4.414;2023-03-01T08:16:07;11.05;;;7.97;;
26965;SDS011;14522;52.068;4.414;2023-03-01T08:18:33;9.77;;;7.95;;
26965;SDS011;14522;52.068;4.414;2023-03-01T08:21:06;10.18;;;7.95;;
26965;SDS011;14522;52.068;4.414;2023-03-01T08:23:33;11.80;;;8.75;;
26965;SDS011;14522;52.068;4.414;2023-03-01T08:26:14;11.95;;;9.30;;
26965;SDS011;14522;52.068;4.414;2023-03-01T08:28:41;13.25;;;9.30;;
26965;SDS011;14522;52.068;4.414;2023-03-01T08:31:18;12.25;;;9.48;;
26965;SDS011;14522;52.068;4.414;2023-03-01T08:33:45;12.43;;;9.27;;
26965;SDS011;14522;52.068;4.414;2023-03-01T08:36:16;15.23;;;9.65;;
26965;SDS011;14522;52.068;4.414;2023-03-01T08:38:43;8.20;;;5.93;;
26965;SDS011;14522;52.068;4.414;2023-03-01T08:41:10;10.15;;;7.68;;
26965;SDS011;14522;52.068;4.414;2023-03-01T08:43:36;13.07;;;9.68;;
26965;SDS011;14522;52.068;4.414;2023-03-01T08:46:02;12.70;;;10.15;;
26965;SDS011;14522;52.068;4.414;2023-03-01T08:48:29;12.48;;;9.30;;
26965;SDS011;14522;52.068;4.414;2023-03-01T08:50:55;16.67;;;11.80;;
26965;SDS011;14522;52.068;4.414;2023-03-01T08:53:22;13.90;;;11.45;;
26965;SDS011;14522;52.068;4.414;2023-03-01T08:55:48;11.25;;;9.45;;
26965;SDS011;14522;52.068;4.414;2023-03-01T08:58:16;14.73;;;9.07;;
26965;SDS011;14522;52.068;4.414;2023-03-01T09:00:42;11.70;;;9.13;;
26965;SDS011;14522;52.068;4.414;2023-03-01T09:03:08;14.32;;;9.65;;
26965;SDS011;14522;52.068;4.414;2023-03-01T09:05:35;10.15;;;8.23;;
26965;SDS011;14522;52.068;4.414;2023-03-01T09:08:03;13.23;;;9.45;;
26965;SDS011;14522;52.068;4.414;2023-03-01T09:10:29;11.15;;;8.32;;
26965;SDS011;14522;52.068;4.414;2023-03-01T09:12:55;9.48;;;6.97;;
26965;SDS011;14522;52.068;4.414;2023-03-01T09:15:22;7.90;;;6.10;;
26965;SDS011;14522;52.068;4.414;2023-03-01T09:17:48;14.52;;;9.65;;
26965;SDS011;14522;52.068;4.414;2023-03-01T09:20:14;11.93;;;9.10;;
26965;SDS011;14522;52.068;4.414;2023-03-01T09:22:41;10.90;;;8.77;;
26965;SDS011;14522;52.068;4.414;2023-03-01T09:25:07;8.38;;;6.53;;
26965;SDS011;14522;52.068;4.414;2023-03-01T09:27:34;12.55;;;8.82;;
26965;SDS011;14522;52.068;4.414;2023-03-01T09:30:00;11.20;;;7.93;;
26965;SDS011;14522;52.068;4.414;2023-03-01T09:32:27;10.52;;;7.68;;
26965;SDS011;14522;52.068;4.414;2023-03-01T09:34:55;11.73;;;9.00;;
26965;SDS011;14522;52.068;4.414;2023-03-01T09:37:34;11.02;;;8.18;;
26965;SDS011;14522;52.068;4.414;2023-03-01T09:40:01;12.63;;;7.85;;
26965;SDS011;14522;52.068;4.414;2023-03-01T09:42:29;8.88;;;6.57;;
26965;SDS011;14522;52.068;4.414;2023-03-01T09:45:09;5.57;;;4.22;;
26965;SDS011;14522;52.068;4.414;2023-03-01T09:47:37;12.32;;;7.90;;
26965;SDS011;14522;52.068;4.414;2023-03-01T09:52:39;8.48;;;5.55;;
26965;SDS011;14522;52.068;4.414;2023-03-01T09:55:13;9.23;;;6.80;;
26965;SDS011;14522;52.068;4.414;2023-03-01T09:57:45;11.85;;;6.95;;
26965;SDS011;14522;52.068;4.414;2023-03-01T10:02:50;11.70;;;8.20;;
26965;SDS011;14522;52.068;4.414;2023-03-01T10:05:34;10.95;;;7.90;;
26965;SDS011;14522;52.068;4.414;2023-03-01T10:08:13;12.60;;;8.80;;
26965;SDS011;14522;52.068;4.414;2023-03-01T10:10:45;12.00;;;9.15;;
26965;SDS011;14522;52.068;4.414;2023-03-01T10:15:48;10.63;;;7.95;;
26965;SDS011;14522;52.068;4.414;2023-03-01T10:18:19;11.20;;;8.23;;
26965;SDS011;14522;52.068;4.414;2023-03-01T10:23:13;12.50;;;9.35;;
26965;SDS011;14522;52.068;4.414;2023-03-01T10:28:29;13.60;;;8.02;;
26965;SDS011;14522;52.068;4.414;2023-03-01T10:30:57;11.38;;;6.90;;
26965;SDS011;14522;52.068;4.414;2023-03-01T10:33:31;8.90;;;6.75;;
26965;SDS011;14522;52.068;4.414;2023-03-01T10:35:58;8.80;;;5.70;;
26965;SDS011;14522;52.068;4.414;2023-03-01T10:38:25;7.32;;;6.05;;
26965;SDS011;14522;52.068;4.414;2023-03-01T10:41:04;11.40;;;5.82;;
26965;SDS011;14522;52.068;4.414;2023-03-01T10:46:26;8.27;;;6.03;;
26965;SDS011;14522;52.068;4.414;2023-03-01T10:51:39;11.43;;;7.70;;
26965;SDS011;14522;52.068;4.414;2023-03-01T10:54:06;13.98;;;7.30;;
26965;SDS011;14522;52.068;4.414;2023-03-01T10:56:51;11.18;;;8.57;;
26965;SDS011;14522;52.068;4.414;2023-03-01T10:59:25;9.88;;;6.53;;
26965;SDS011;14522;52.068;4.414;2023-03-01T11:05:32;9.57;;;6.55;;
26965;SDS011;14522;52.068;4.414;2023-03-01T11:07:48;11.70;;;7.97;;
26965;SDS011;14522;52.068;4.414;2023-03-01T11:10:25;12.32;;;8.05;;
26965;SDS011;14522;52.068;4.414;2023-03-01T11:12:52;11.38;;;6.55;;
26965;SDS011;14522;52.068;4.414;2023-03-01T11:15:21;10.07;;;7.00;;
26965;SDS011;14522;52.068;4.414;2023-03-01T11:17:48;10.10;;;6.95;;
26965;SDS011;14522;52.068;4.414;2023-03-01T11:20:29;15.25;;;8.13;;
26965;SDS011;14522;52.068;4.414;2023-03-01T11:23:30;11.88;;;8.10;;
26965;SDS011;14522;52.068;4.414;2023-03-01T11:25:54;10.95;;;6.68;;
26965;SDS011;14522;52.068;4.414;2023-03-01T11:28:21;11.50;;;7.80;;
26965;SDS011;14522;52.068;4.414;2023-03-01T11:30:53;9.55;;;7.53;;
26965;SDS011;14522;52.068;4.414;2023-03-01T11:33:35;11.45;;;7.55;;
26965;SDS011;14522;52.068;4.414;2023-03-01T11:38:48;13.70;;;7.10;;
26965;SDS011;14522;52.068;4.414;2023-03-01T11:41:17;13.65;;;7.85;;
26965;SDS011;14522;52.068;4.414;2023-03-01T11:43:49;9.02;;;5.93;;
26965;SDS011;14522;52.068;4.414;2023-03-01T11:51:33;9.98;;;7.05;;
26965;SDS011;14522;52.068;4.414;2023-03-01T11:54:06;10.88;;;5.40;;
26965;SDS011;14522;52.068;4.414;2023-03-01T11:56:38;13.18;;;7.90;;
26965;SDS011;14522;52.068;4.414;2023-03-01T12:19:10;11.60;;;7.13;;
26965;SDS011;14522;52.068;4.414;2023-03-01T12:29:32;13.50;;;7.13;;
26965;SDS011;14522;52.068;4.414;2023-03-01T12:32:10;9.45;;;5.80;;
26965;SDS011;14522;52.068;4.414;2023-03-01T12:47:36;9.98;;;6.43;;
26965;SDS011;14522;52.068;4.414;2023-03-01T12:50:11;12.35;;;7.95;;
26965;SDS011;14522;52.068;4.414;2023-03-01T12:52:40;14.07;;;8.85;;
26965;SDS011;14522;52.068;4.414;2023-03-01T13:03:29;14.38;;;9.15;;
26965;SDS011;14522;52.068;4.414;2023-03-01T13:06:15;12.80;;;8.60;;
26965;SDS011;14522;52.068;4.414;2023-03-01T13:08:49;12.20;;;7.53;;
26965;SDS011;14522;52.068;4.414;2023-03-01T13:11:21;13.40;;;7.75;;
26965;SDS011;14522;52.068;4.414;2023-03-01T13:13:48;13.60;;;8.23;;
26965;SDS011;14522;52.068;4.414;2023-03-01T13:16:27;16.40;;;8.45;;
26965;SDS011;14522;52.068;4.414;2023-03-01T13:19:20;18.02;;;8.75;;
26965;SDS011;14522;52.068;4.414;2023-03-01T13:21:48;15.32;;;9.07;;
26965;SDS011;14522;52.068;4.414;2023-03-01T13:24:25;12.38;;;8.13;;
26965;SDS011;14522;52.068;4.414;2023-03-01T13:29:53;12.50;;;8.07;;
26965;SDS011;14522;52.068;4.414;2023-03-01T13:32:24;11.38;;;7.82;;
26965;SDS011;14522;52.068;4.414;2023-03-01T13:37:41;8.30;;;5.55;;
26965;SDS011;14522;52.068;4.414;2023-03-01T13:42:51;10.25;;;7.07;;
26965;SDS011;14522;52.068;4.414;2023-03-01T13:48:02;12.63;;;6.90;;
26965;SDS011;14522;52.068;4.414;2023-03-01T13:50:29;11.77;;;6.68;;
26965;SDS011;14522;52.068;4.414;2023-03-01T13:53:03;9.00;;;5.30;;
26965;SDS011;14522;52.068;4.414;2023-03-01T13:58:26;7.22;;;4.90;;
26965;SDS011;14522;52.068;4.414;2023-03-01T14:03:23;11.63;;;6.93;;
26965;SDS011;14522;52.068;4.414;2023-03-01T14:06:09;10.13;;;5.65;;
26965;SDS011;14522;52.068;4.414;2023-03-01T14:08:42;7.85;;;5.35;;
26965;SDS011;14522;52.068;4.414;2023-03-01T14:24:30;8.77;;;4.07;;
26965;SDS011;14522;52.068;4.414;2023-03-01T14:27:00;6.57;;;3.60;;
26965;SDS011;14522;52.068;4.414;2023-03-01T14:29:27;5.05;;;3.70;;
26965;SDS011;14522;52.068;4.414;2023-03-01T14:32:07;9.07;;;5.57;;
26965;SDS011;14522;52.068;4.414;2023-03-01T14:34:34;10.38;;;4.63;;
26965;SDS011;14522;52.068;4.414;2023-03-01T14:37:10;10.15;;;5.07;;
26965;SDS011;14522;52.068;4.414;2023-03-01T14:39:37;11.93;;;6.60;;
26965;SDS011;14522;52.068;4.414;2023-03-01T14:42:04;8.90;;;5.95;;
26965;SDS011;14522;52.068;4.414;2023-03-01T14:44:42;12.38;;;6.68;;
26965;SDS011;14522;52.068;4.414;2023-03-01T14:47:11;6.60;;;4.65;;
26965;SDS011;14522;52.068;4.414;2023-03-01T14:49:38;5.78;;;3.63;;
26965;SDS011;14522;52.068;4.414;2023-03-01T14:52:05;8.05;;;4.43;;
26965;SDS011;14522;52.068;4.414;2023-03-01T14:56:59;9.63;;;5.88;;
26965;SDS011;14522;52.068;4.414;2023-03-01T14:59:26;7.75;;;5.45;;
26965;SDS011;14522;52.068;4.414;2023-03-01T15:01:53;9.02;;;6.20;;
26965;SDS011;14522;52.068;4.414;2023-03-01T15:04:20;8.90;;;5.85;;
26965;SDS011;14522;52.068;4.414;2023-03-01T15:06:52;8.68;;;4.60;;
26965;SDS011;14522;52.068;4.414;2023-03-01T15:09:19;10.38;;;5.35;;
26965;SDS011;14522;52.068;4.414;2023-03-01T15:11:46;6.65;;;4.43;;
26965;SDS011;14522;52.068;4.414;2023-03-01T15:14:25;7.03;;;4.57;;
26965;SDS011;14522;52.068;4.414;2023-03-01T15:16:52;7.38;;;4.50;;
26965;SDS011;14522;52.068;4.414;2023-03-01T15:19:18;8.20;;;4.70;;
26965;SDS011;14522;52.068;4.414;2023-03-01T15:21:46;11.43;;;4.22;;
26965;SDS011;14522;52.068;4.414;2023-03-01T15:24:19;6.03;;;4.32;;
26965;SDS011;14522;52.068;4.414;2023-03-01T15:26:56;6.70;;;4.20;;
26965;SDS011;14522;52.068;4.414;2023-03-01T15:29:25;8.20;;;4.47;;
26965;SDS011;14522;52.068;4.414;2023-03-01T15:32:03;7.35;;;4.50;;
26965;SDS011;14522;52.068;4.414;2023-03-01T15:34:31;11.70;;;5.43;;
26965;SDS011;14522;52.068;4.414;2023-03-01T15:36:59;8.77;;;4.97;;
26965;SDS011;14522;52.068;4.414;2023-03-01T15:39:31;7.70;;;4.82;;
26965;SDS011;14522;52.068;4.414;2023-03-01T15:42:00;10.05;;;5.00;;
26965;SDS011;14522;52.068;4.414;2023-03-01T15:44:30;8.90;;;5.47;;
26965;SDS011;14522;52.068;4.414;2023-03-01T15:47:21;9.63;;;5.10;;
26965;SDS011;14522;52.068;4.414;2023-03-01T15:49:48;9.40;;;5.50;;
26965;SDS011;14522;52.068;4.414;2023-03-01T15:52:22;9.45;;;5.00;;
26965;SDS011;14522;52.068;4.414;2023-03-01T15:54:59;15.38;;;5.90;;
26965;SDS011;14522;52.068;4.414;2023-03-01T15:57:26;13.45;;;5.28;;
26965;SDS011;14522;52.068;4.414;2023-03-01T15:59:52;8.70;;;5.68;;
26965;SDS011;14522;52.068;4.414;2023-03-01T16:02:19;9.98;;;4.80;;
26965;SDS011;14522;52.068;4.414;2023-03-01T16:04:47;5.45;;;3.78;;
26965;SDS011;14522;52.068;4.414;2023-03-01T16:07:15;10.63;;;4.88;;
26965;SDS011;14522;52.068;4.414;2023-03-01T16:09:41;7.07;;;4.72;;
26965;SDS011;14522;52.068;4.414;2023-03-01T16:12:12;6.45;;;3.65;;
26965;SDS011;14522;52.068;4.414;2023-03-01T16:14:40;6.80;;;3.55;;
26965;SDS011;14522;52.068;4.414;2023-03-01T16:17:06;5.97;;;3.55;;
26965;SDS011;14522;52.068;4.414;2023-03-01T16:19:36;7.60;;;3.78;;
26965;SDS011;14522;52.068;4.414;2023-03-01T16:22:03;7.03;;;3.85;;
26965;SDS011;14522;52.068;4.414;2023-03-01T16:24:30;7.47;;;3.90;;
26965;SDS011;14522;52.068;4.414;2023-03-01T16:26:56;8.32;;;4.72;;
26965;SDS011;14522;52.068;4.414;2023-03-01T16:29:23;9.38;;;4.68;;
26965;SDS011;14522;52.068;4.414;2023-03-01T16:31:49;7.05;;;4.47;;
26965;SDS011;14522;52.068;4.414;2023-03-01T16:34:16;7.70;;;4.32;;
26965;SDS011;14522;52.068;4.414;2023-03-01T16:36:42;5.13;;;4.07;;
26965;SDS011;14522;52.068;4.414;2023-03-01T16:39:09;11.95;;;4.68;;
26965;SDS011;14522;52.068;4.414;2023-03-01T16:41:35;7.35;;;5.03;;
26965;SDS011;14522;52.068;4.414;2023-03-01T16:44:01;5.65;;;3.70;;
26965;SDS011;14522;52.068;4.414;2023-03-01T16:46:28;8.57;;;4.60;;
26965;SDS011;14522;52.068;4.414;2023-03-01T16:48:55;6.43;;;4.72;;
26965;SDS011;14522;52.068;4.414;2023-03-01T16:51:22;7.82;;;4.53;;
26965;SDS011;14522;52.068;4.414;2023-03-01T16:53:49;8.90;;;4.82;;
26965;SDS011;14522;52.068;4.414;2023-03-01T16:56:16;9.10;;;4.57;;